Time;durP1;ratioP1;P1;durP2;ratioP2;P2;SDS_P1;SDS_P2;PMS_P1;PMS_P2;Temp;Humidity;BMP_temperature;BMP_pressure;BME280_temperature;BME280_humidity;BME280_pressure;Samples;Min_cycle;Max_cycle;Signal;HPM_P1;HPM_P2
2023/04/21 00:02:04;;;;;;;22.60;14.98;;;9.30;99.90;;;;;;5097038;28;20138;-70
2023/04/21 00:04:31;;;;;;;20.83;14.27;;;9.30;99.90;;;;;;5113909;28;20547;-70
2023/04/21 00:07:00;;;;;;;21.50;14.07;;;9.30;99.90;;;;;;5095273;28;20040;-70
2023/04/21 00:09:26;;;;;;;22.58;15.40;;;9.30;99.90;;;;;;5113853;28;20392;-70
2023/04/21 00:11:52;;;;;;;16.90;12.82;;;9.30;99.90;;;;;;5094971;28;20032;-70
2023/04/21 00:14:18;;;;;;;19.15;13.60;;;9.40;99.90;;;;;;5113499;28;20400;-70
2023/04/21 00:16:44;;;;;;;17.48;12.57;;;9.50;99.90;;;;;;5109307;28;20484;-70
2023/04/21 00:19:09;;;;;;;20.42;13.70;;;9.40;99.90;;;;;;5130477;27;20048;-70
2023/04/21 00:21:35;;;;;;;18.73;12.93;;;9.40;99.90;;;;;;5096348;28;20042;-70
2023/04/21 00:24:01;;;;;;;19.48;11.82;;;9.40;99.90;;;;;;5128978;27;20561;-70
2023/04/21 00:26:26;;;;;;;20.48;12.98;;;9.40;99.90;;;;;;5113095;28;20036;-70
2023/04/21 00:28:52;;;;;;;20.52;13.00;;;9.50;99.90;;;;;;5125302;27;20032;-70
2023/04/21 00:31:17;;;;;;;18.65;12.93;;;9.40;99.90;;;;;;5109768;28;20074;-70
2023/04/21 00:33:43;;;;;;;17.88;12.65;;;9.40;99.90;;;;;;5109681;28;20032;-70
2023/04/21 00:36:09;;;;;;;19.00;12.15;;;9.40;99.90;;;;;;5109508;28;20075;-70
2023/04/21 00:38:35;;;;;;;18.05;10.85;;;9.40;99.90;;;;;;5109089;28;20047;-70
2023/04/21 00:41:01;;;;;;;17.90;12.15;;;9.40;99.90;;;;;;5075664;28;20036;-70
2023/04/21 00:43:26;;;;;;;22.10;12.85;;;9.30;99.90;;;;;;5084878;28;20073;-70
2023/04/21 00:45:52;;;;;;;19.88;13.18;;;9.30;99.90;;;;;;5095929;28;20126;-70
2023/04/21 00:48:17;;;;;;;20.17;12.88;;;9.20;99.90;;;;;;5099010;28;20561;-70
2023/04/21 00:50:44;;;;;;;17.95;12.52;;;9.30;99.90;;;;;;5108479;28;20043;-70
2023/04/21 00:53:11;;;;;;;17.42;11.68;;;9.20;99.90;;;;;;5102512;28;20119;-70
2023/04/21 00:55:37;;;;;;;19.90;12.40;;;9.30;99.90;;;;;;5079658;28;20492;-70
2023/04/21 00:58:03;;;;;;;20.40;12.32;;;9.30;99.90;;;;;;5092317;28;20131;-70
2023/04/21 01:00:29;;;;;;;19.05;11.75;;;9.20;99.90;;;;;;5092603;28;20436;-71
2023/04/21 01:02:55;;;;;;;21.10;12.35;;;9.20;99.90;;;;;;5083072;28;20039;-70
2023/04/21 01:05:22;;;;;;;18.10;12.18;;;9.20;99.90;;;;;;5112722;28;20051;-70
2023/04/21 01:07:48;;;;;;;19.58;12.88;;;9.10;99.90;;;;;;5094529;28;20036;-70
2023/04/21 01:10:14;;;;;;;20.77;12.35;;;9.20;99.90;;;;;;5109568;28;20460;-70
2023/04/21 01:12:44;;;;;;;16.85;11.32;;;9.20;99.90;;;;;;5098527;28;20063;-70
2023/04/21 01:15:14;;;;;;;15.80;9.68;;;9.10;99.90;;;;;;5112209;28;20430;-70
2023/04/21 01:17:40;;;;;;;19.80;12.50;;;9.20;99.90;;;;;;5111014;28;20122;-70
2023/04/21 01:20:11;;;;;;;18.85;12.07;;;9.20;99.90;;;;;;5112328;28;20445;-70
2023/04/21 01:22:38;;;;;;;16.25;10.80;;;9.10;99.90;;;;;;5083115;28;20403;-70
2023/04/21 01:25:04;;;;;;;16.67;12.18;;;9.10;99.90;;;;;;5085120;28;20047;-70
2023/04/21 01:27:30;;;;;;;18.00;11.90;;;9.20;99.90;;;;;;5074703;28;20032;-70
2023/04/21 01:29:56;;;;;;;18.02;10.93;;;9.20;99.90;;;;;;5091275;28;20491;-70
2023/04/21 01:32:25;;;;;;;20.67;13.35;;;9.10;99.90;;;;;;5122548;28;20131;-70
2023/04/21 01:34:52;;;;;;;16.77;11.70;;;9.00;99.90;;;;;;5090948;28;20554;-70
2023/04/21 01:37:20;;;;;;;18.02;12.55;;;9.00;99.90;;;;;;5074214;28;20036;-70
2023/04/21 01:39:51;;;;;;;16.88;10.90;;;9.00;99.90;;;;;;5096801;28;20036;-70
2023/04/21 01:42:17;;;;;;;18.42;11.32;;;9.00;99.90;;;;;;5110034;28;20056;-70
2023/04/21 01:44:43;;;;;;;20.48;12.02;;;9.00;99.90;;;;;;5093802;28;20051;-70
2023/04/21 01:47:10;;;;;;;18.48;10.70;;;9.00;99.90;;;;;;5108465;28;20040;-69
2023/04/21 01:49:35;;;;;;;20.40;11.15;;;9.00;99.90;;;;;;5111398;28;20035;-69
2023/04/21 01:52:01;;;;;;;18.40;12.15;;;9.10;99.90;;;;;;5127933;28;20050;-70
2023/04/21 01:54:27;;;;;;;15.40;11.40;;;9.00;99.90;;;;;;5074617;28;20051;-69
2023/04/21 01:56:52;;;;;;;19.73;11.45;;;8.90;99.90;;;;;;5091448;28;20052;-70
2023/04/21 01:59:18;;;;;;;17.67;10.40;;;8.90;99.90;;;;;;5107671;28;20044;-70
2023/04/21 02:01:44;;;;;;;15.60;10.73;;;8.90;99.90;;;;;;5091657;28;20055;-69
2023/04/21 02:04:10;;;;;;;19.33;11.80;;;9.00;99.90;;;;;;5095552;28;20131;-69
2023/04/21 02:06:35;;;;;;;19.67;11.40;;;9.00;99.90;;;;;;5095313;28;20508;-70
2023/04/21 02:09:01;;;;;;;20.25;10.73;;;8.90;99.90;;;;;;5098513;28;20028;-70
2023/04/21 02:11:26;;;;;;;14.63;10.20;;;8.90;99.90;;;;;;5133210;27;20032;-70
2023/04/21 02:13:53;;;;;;;17.20;11.20;;;8.80;99.90;;;;;;5115670;27;20400;-69
2023/04/21 02:16:19;;;;;;;17.38;10.63;;;8.80;99.90;;;;;;5095679;28;20048;-70
2023/04/21 02:18:46;;;;;;;20.40;11.57;;;8.90;99.90;;;;;;5111550;28;20498;-70
2023/04/21 02:21:11;;;;;;;14.80;9.05;;;9.00;99.90;;;;;;5097397;28;20089;-69
2023/04/21 02:23:37;;;;;;;17.30;10.30;;;9.00;99.90;;;;;;5097608;28;20043;-69
2023/04/21 02:26:03;;;;;;;18.40;11.60;;;9.00;99.90;;;;;;5115555;28;20113;-70
2023/04/21 02:28:30;;;;;;;19.00;11.05;;;8.90;99.90;;;;;;5095298;28;20039;-70
2023/04/21 02:30:56;;;;;;;18.75;12.13;;;9.00;99.90;;;;;;5097590;28;20080;-69
2023/04/21 02:33:21;;;;;;;17.45;11.65;;;8.90;99.90;;;;;;5115527;28;20032;-70
2023/04/21 02:35:47;;;;;;;20.50;11.15;;;8.80;99.90;;;;;;5131357;27;20199;-70
2023/04/21 02:38:12;;;;;;;22.65;11.98;;;8.80;99.90;;;;;;5114366;28;20042;-70
2023/04/21 02:40:38;;;;;;;16.92;11.30;;;8.80;99.90;;;;;;5119399;27;20035;-69
2023/04/21 02:43:04;;;;;;;19.63;11.55;;;8.80;99.90;;;;;;5115024;28;20055;-70
2023/04/21 02:45:29;;;;;;;18.92;12.13;;;8.80;99.90;;;;;;5080853;28;20036;-70
2023/04/21 02:47:55;;;;;;;18.52;11.63;;;8.70;99.90;;;;;;5103096;28;20024;-69
2023/04/21 02:50:20;;;;;;;19.35;12.02;;;8.80;99.90;;;;;;5112803;28;20039;-69
2023/04/21 02:52:46;;;;;;;19.80;12.60;;;8.70;99.90;;;;;;5102055;28;20040;-69
2023/04/21 02:55:12;;;;;;;21.17;12.70;;;8.70;99.90;;;;;;5116729;27;20624;-69
2023/04/21 02:57:37;;;;;;;20.33;12.25;;;8.70;99.90;;;;;;5094095;28;20432;-69
2023/04/21 03:00:03;;;;;;;18.20;12.57;;;8.70;99.90;;;;;;5111942;27;20048;-69
2023/04/21 03:02:30;;;;;;;21.35;13.13;;;8.60;99.90;;;;;;5111133;27;20036;-69
2023/04/21 03:04:55;;;;;;;18.90;11.93;;;8.60;99.90;;;;;;5105081;28;20036;-69
2023/04/21 03:07:21;;;;;;;19.05;12.98;;;8.60;99.90;;;;;;5131841;27;20036;-69
2023/04/21 03:09:46;;;;;;;18.35;12.85;;;8.60;99.90;;;;;;5112561;28;20039;-69
2023/04/21 03:12:12;;;;;;;18.05;12.07;;;8.70;99.90;;;;;;5113537;28;20036;-69
2023/04/21 03:14:37;;;;;;;18.58;12.45;;;8.70;99.90;;;;;;5110350;28;20088;-69
2023/04/21 03:17:03;;;;;;;19.80;13.75;;;8.60;99.90;;;;;;5097687;28;20059;-69
2023/04/21 03:19:29;;;;;;;22.33;13.57;;;8.60;99.90;;;;;;5113422;28;20482;-69
2023/04/21 03:21:54;;;;;;;20.05;13.60;;;8.50;99.90;;;;;;5113430;28;20051;-69
2023/04/21 03:24:20;;;;;;;20.42;12.65;;;8.50;99.90;;;;;;5120191;27;20036;-70
2023/04/21 03:26:46;;;;;;;35.38;31.80;;;8.50;99.90;;;;;;5094107;28;20117;-70
2023/04/21 03:29:11;;;;;;;20.58;12.93;;;8.40;99.90;;;;;;5093523;27;20400;-70
2023/04/21 03:31:37;;;;;;;19.48;12.43;;;8.30;99.90;;;;;;5077416;28;20126;-70
2023/04/21 03:34:02;;;;;;;20.02;13.25;;;8.40;99.90;;;;;;5102859;28;20051;-69
2023/04/21 03:36:28;;;;;;;19.52;12.00;;;8.50;99.90;;;;;;5094817;28;20546;-69
2023/04/21 03:38:53;;;;;;;20.00;12.80;;;8.40;99.90;;;;;;5110284;27;20505;-69
2023/04/21 03:41:19;;;;;;;21.10;13.02;;;8.40;99.90;;;;;;5093787;28;20040;-70
2023/04/21 03:43:44;;;;;;;19.10;12.68;;;8.40;99.90;;;;;;5076131;28;20122;-70
2023/04/21 03:46:20;;;;;;;22.23;12.85;;;8.40;99.90;;;;;;5110612;28;20044;-69
2023/04/21 03:48:46;;;;;;;16.95;9.43;;;8.40;99.90;;;;;;5102594;28;20038;-69
2023/04/21 03:51:13;;;;;;;20.15;13.23;;;8.40;99.90;;;;;;5097080;28;20050;-70
2023/04/21 03:53:38;;;;;;;20.30;11.40;;;8.30;99.90;;;;;;5110686;27;20065;-70
2023/04/21 03:56:04;;;;;;;18.35;12.18;;;8.30;99.90;;;;;;5110752;27;20063;-69
2023/04/21 03:58:30;;;;;;;18.60;11.93;;;8.30;99.90;;;;;;5093057;28;20127;-69
2023/04/21 04:00:55;;;;;;;20.77;12.75;;;8.40;99.90;;;;;;5099883;28;20024;-70
2023/04/21 04:03:21;;;;;;;20.00;13.00;;;8.30;99.90;;;;;;5097049;28;20092;-69
2023/04/21 04:05:47;;;;;;;20.50;12.82;;;8.30;99.90;;;;;;5112122;28;20085;-69
2023/04/21 04:08:12;;;;;;;19.92;12.23;;;8.20;99.90;;;;;;5084794;28;20043;-69
2023/04/21 04:10:38;;;;;;;23.77;13.25;;;8.30;99.90;;;;;;5083908;28;20036;-69
2023/04/21 04:13:03;;;;;;;20.35;13.35;;;8.20;99.90;;;;;;5110177;28;20451;-69
2023/04/21 04:15:29;;;;;;;19.45;12.80;;;8.10;99.90;;;;;;5092114;28;20071;-69
2023/04/21 04:17:55;;;;;;;21.00;12.43;;;8.10;99.90;;;;;;5112095;28;20567;-69
2023/04/21 04:20:20;;;;;;;20.17;12.07;;;8.20;99.90;;;;;;5095477;28;20044;-70
2023/04/21 04:22:46;;;;;;;18.40;12.82;;;8.20;99.90;;;;;;5095296;28;20089;-69
2023/04/21 04:25:13;;;;;;;20.52;13.02;;;8.20;99.90;;;;;;5101764;28;20507;-70
2023/04/21 04:27:40;;;;;;;18.70;12.57;;;8.10;99.90;;;;;;5093355;28;20035;-69
2023/04/21 04:30:06;;;;;;;18.92;11.93;;;8.10;99.90;;;;;;5104860;28;20040;-70
2023/04/21 04:32:32;;;;;;;17.95;11.02;;;8.10;99.90;;;;;;5084991;28;20032;-70
2023/04/21 04:34:58;;;;;;;18.70;12.57;;;8.20;99.90;;;;;;5093712;28;20400;-70
2023/04/21 04:37:24;;;;;;;19.65;11.63;;;8.20;99.90;;;;;;5098836;28;20039;-70
2023/04/21 04:39:53;;;;;;;20.95;12.90;;;8.20;99.90;;;;;;5111566;28;20089;-70
2023/04/21 04:42:19;;;;;;;23.63;13.35;;;8.10;99.90;;;;;;5077300;28;20523;-70
2023/04/21 04:44:45;;;;;;;19.75;12.73;;;8.00;99.90;;;;;;5107892;28;20044;-70
2023/04/21 04:47:11;;;;;;;19.88;13.80;;;8.10;99.90;;;;;;5093291;28;20480;-70
2023/04/21 04:49:37;;;;;;;22.00;12.45;;;8.00;99.90;;;;;;5099638;28;20073;-70
2023/04/21 04:52:03;;;;;;;18.95;11.98;;;8.10;99.90;;;;;;5128120;27;20040;-70
2023/04/21 04:54:29;;;;;;;20.67;12.60;;;8.10;99.90;;;;;;5086511;27;20042;-70
2023/04/21 04:56:56;;;;;;;19.05;10.82;;;8.10;99.90;;;;;;5102237;28;20055;-70
2023/04/21 04:59:22;;;;;;;17.90;12.02;;;8.10;99.90;;;;;;5101754;28;20040;-70
2023/04/21 05:01:47;;;;;;;17.05;11.23;;;8.10;99.90;;;;;;5094614;27;20051;-69
2023/04/21 05:04:15;;;;;;;18.60;11.48;;;8.10;99.90;;;;;;5110716;28;20104;-70
2023/04/21 05:06:41;;;;;;;20.23;11.05;;;8.20;99.90;;;;;;5105749;28;20071;-70
2023/04/21 05:09:07;;;;;;;16.20;11.02;;;8.20;99.90;;;;;;5098217;28;20475;-70
2023/04/21 05:11:32;;;;;;;21.25;11.85;;;8.20;99.90;;;;;;5107833;28;20519;-70
2023/04/21 05:13:58;;;;;;;18.20;10.98;;;8.30;99.90;;;;;;5111077;28;20039;-70
2023/04/21 05:16:23;;;;;;;16.25;11.05;;;8.30;99.90;;;;;;5110110;28;20046;-69
2023/04/21 05:18:52;;;;;;;19.92;10.65;;;8.30;99.90;;;;;;5105445;28;20039;-70
2023/04/21 05:21:27;;;;;;;19.30;11.95;;;8.30;99.90;;;;;;5110418;28;20049;-70
2023/04/21 05:23:55;;;;;;;15.70;10.55;;;8.40;99.90;;;;;;5093272;28;20075;-69
2023/04/21 05:26:21;;;;;;;17.08;11.07;;;8.50;99.90;;;;;;5112259;28;20063;-69
2023/04/21 05:28:47;;;;;;;18.83;10.68;;;8.50;99.90;;;;;;5093019;28;20447;-70
2023/04/21 05:31:13;;;;;;;19.60;11.30;;;8.50;99.90;;;;;;5110580;28;20122;-70
2023/04/21 05:33:38;;;;;;;19.48;11.13;;;8.50;99.90;;;;;;5113992;28;20066;-70
2023/04/21 05:36:08;;;;;;;16.73;11.52;;;8.50;99.90;;;;;;5093435;28;20399;-70
2023/04/21 05:38:35;;;;;;;17.33;10.70;;;8.60;99.90;;;;;;5106666;28;20435;-70
2023/04/21 05:41:01;;;;;;;17.75;12.02;;;8.70;99.90;;;;;;5115541;28;20408;-70
2023/04/21 05:43:26;;;;;;;18.48;10.90;;;8.70;99.90;;;;;;5099992;28;20052;-70
2023/04/21 05:45:52;;;;;;;18.58;10.38;;;8.70;99.90;;;;;;5112623;28;20051;-70
2023/04/21 05:48:17;;;;;;;19.95;10.48;;;8.80;99.90;;;;;;5113152;28;20039;-70
2023/04/21 05:50:43;;;;;;;19.30;10.60;;;9.00;99.90;;;;;;5086297;28;20127;-70
2023/04/21 05:53:08;;;;;;;15.02;9.32;;;9.00;99.90;;;;;;5093671;28;20492;-70
2023/04/21 05:55:35;;;;;;;18.23;10.52;;;9.00;99.90;;;;;;5112825;28;20055;-70
2023/04/21 05:58:01;;;;;;;18.42;11.15;;;9.10;99.90;;;;;;5112012;28;20047;-70
2023/04/21 06:00:26;;;;;;;19.73;10.73;;;9.10;99.90;;;;;;5086468;28;20067;-70
2023/04/21 06:02:52;;;;;;;14.60;10.57;;;9.20;99.90;;;;;;5127849;27;20035;-69
2023/04/21 06:05:17;;;;;;;15.38;10.25;;;9.20;99.90;;;;;;5094310;28;20041;-70
2023/04/21 06:07:43;;;;;;;18.85;10.90;;;9.30;99.90;;;;;;5112547;27;20060;-70
2023/04/21 06:10:10;;;;;;;19.10;9.75;;;9.40;99.90;;;;;;5093638;28;20440;-70
2023/04/21 06:12:35;;;;;;;15.48;9.32;;;9.40;99.90;;;;;;5081654;28;20165;-69
2023/04/21 06:15:01;;;;;;;18.33;9.98;;;9.50;99.90;;;;;;5111743;28;20071;-70
2023/04/21 06:17:27;;;;;;;17.58;9.85;;;9.60;99.90;;;;;;5112496;28;20043;-70
2023/04/21 06:19:54;;;;;;;13.85;8.60;;;9.60;99.90;;;;;;5103073;28;20047;-69
2023/04/21 06:22:23;;;;;;;15.90;10.13;;;9.70;99.90;;;;;;5079381;28;20420;-70
2023/04/21 06:24:48;;;;;;;17.70;9.52;;;9.80;99.90;;;;;;5114577;28;20395;-70
2023/04/21 06:27:14;;;;;;;17.75;10.13;;;9.80;99.90;;;;;;5114004;28;20032;-70
2023/04/21 06:29:41;;;;;;;17.17;9.25;;;9.90;99.90;;;;;;5098835;28;20047;-69
2023/04/21 06:32:07;;;;;;;17.85;9.93;;;9.90;99.90;;;;;;5077613;28;20118;-69
2023/04/21 06:34:33;;;;;;;16.85;10.10;;;10.00;99.90;;;;;;5109232;28;20119;-69
2023/04/21 06:36:58;;;;;;;17.38;9.70;;;10.10;99.90;;;;;;5115709;28;20036;-69
2023/04/21 06:39:24;;;;;;;15.90;8.52;;;10.20;99.90;;;;;;5095734;28;20555;-69
2023/04/21 06:41:49;;;;;;;17.02;9.73;;;10.20;99.90;;;;;;5115392;28;20403;-69
2023/04/21 06:44:15;;;;;;;15.35;8.40;;;10.30;99.90;;;;;;5093872;28;20039;-69
2023/04/21 06:46:41;;;;;;;17.13;9.90;;;10.40;99.90;;;;;;5094808;28;20488;-69
2023/04/21 06:49:07;;;;;;;16.13;9.98;;;10.50;99.90;;;;;;5097151;28;20043;-69
2023/04/21 06:51:33;;;;;;;13.50;9.23;;;10.50;99.90;;;;;;5098442;28;20391;-69
2023/04/21 06:53:59;;;;;;;21.05;10.18;;;10.60;99.90;;;;;;5127417;27;20036;-69
2023/04/21 06:56:29;;;;;;;15.18;9.95;;;10.70;99.90;;;;;;5104504;27;20563;-69
2023/04/21 06:58:55;;;;;;;18.33;8.32;;;10.70;99.90;;;;;;5115243;28;20443;-69
2023/04/21 07:01:23;;;;;;;17.63;9.27;;;10.80;99.90;;;;;;5113819;28;20583;-69
2023/04/21 07:03:49;;;;;;;15.93;9.05;;;10.90;99.90;;;;;;5114936;28;20089;-69
2023/04/21 07:06:15;;;;;;;21.42;9.98;;;10.90;99.90;;;;;;5112153;27;20051;-70
2023/04/21 07:08:40;;;;;;;17.35;9.63;;;11.00;99.90;;;;;;5114817;28;20036;-70
2023/04/21 07:11:06;;;;;;;17.70;9.82;;;11.10;99.90;;;;;;5113660;28;20043;-69
2023/04/21 07:13:32;;;;;;;14.25;9.27;;;11.20;99.90;;;;;;5096032;28;20047;-69
2023/04/21 07:15:58;;;;;;;15.93;9.40;;;11.30;99.90;;;;;;5114931;28;20035;-69
2023/04/21 07:18:23;;;;;;;16.73;8.98;;;11.40;99.90;;;;;;5111891;28;20070;-69
2023/04/21 07:20:49;;;;;;;19.23;10.25;;;11.40;99.90;;;;;;5097741;28;20031;-69
2023/04/21 07:23:15;;;;;;;17.25;10.60;;;11.40;99.90;;;;;;5099171;28;20039;-69
2023/04/21 07:25:40;;;;;;;16.60;10.02;;;11.40;99.90;;;;;;5110849;27;20576;-70
2023/04/21 07:28:06;;;;;;;17.55;9.82;;;11.30;99.90;;;;;;5094075;28;20036;-69
2023/04/21 07:30:32;;;;;;;17.48;9.82;;;11.40;99.90;;;;;;5104615;28;20396;-70
2023/04/21 07:32:58;;;;;;;13.63;9.07;;;11.40;99.90;;;;;;5114416;28;20054;-69
2023/04/21 07:35:24;;;;;;;16.55;9.32;;;11.60;99.90;;;;;;5094295;28;20042;-70
2023/04/21 07:37:50;;;;;;;14.70;9.40;;;11.70;99.90;;;;;;5097289;28;20040;-70
2023/04/21 07:40:15;;;;;;;16.42;9.27;;;11.80;99.90;;;;;;5096041;28;20046;-69
2023/04/21 07:42:41;;;;;;;17.00;9.68;;;12.00;99.90;;;;;;5114207;28;20142;-69
2023/04/21 07:45:07;;;;;;;16.88;8.70;;;12.10;99.90;;;;;;5112027;28;20468;-69
2023/04/21 07:47:33;;;;;;;15.80;8.98;;;12.20;99.90;;;;;;5097314;28;20031;-69
2023/04/21 07:49:59;;;;;;;17.02;9.48;;;12.40;99.90;;;;;;5095178;28;20035;-69
2023/04/21 07:52:25;;;;;;;17.17;9.05;;;12.40;99.90;;;;;;5096785;28;20042;-69
2023/04/21 07:54:50;;;;;;;14.88;9.95;;;12.60;99.90;;;;;;5094945;28;20453;-69
2023/04/21 07:57:16;;;;;;;15.63;8.35;;;12.60;99.90;;;;;;5093435;28;20046;-69
2023/04/21 07:59:42;;;;;;;19.40;9.07;;;12.80;99.90;;;;;;5092767;28;20042;-69
2023/04/21 08:02:07;;;;;;;13.70;9.68;;;12.80;99.90;;;;;;5095032;28;20036;-69
2023/04/21 08:04:33;;;;;;;15.13;8.50;;;12.90;99.90;;;;;;5096755;28;20031;-69
2023/04/21 08:06:59;;;;;;;14.45;8.85;;;12.90;99.90;;;;;;5111479;28;20459;-69
2023/04/21 08:09:25;;;;;;;14.57;8.68;;;13.00;99.90;;;;;;5113612;28;20071;-69
2023/04/21 08:11:51;;;;;;;16.17;9.25;;;13.00;99.90;;;;;;5106268;27;20063;-69
2023/04/21 08:14:17;;;;;;;14.55;9.02;;;13.00;99.90;;;;;;5113587;28;20070;-69
2023/04/21 08:16:42;;;;;;;18.23;9.38;;;13.10;99.90;;;;;;5112422;28;20483;-69
2023/04/21 08:19:08;;;;;;;16.35;8.30;;;13.20;99.90;;;;;;5108733;27;20115;-68
2023/04/21 08:21:35;;;;;;;18.65;8.90;;;13.40;99.90;;;;;;5096513;28;20076;-69
2023/04/21 08:24:01;;;;;;;13.48;8.65;;;13.60;99.90;;;;;;5109159;27;20042;-69
2023/04/21 08:26:28;;;;;;;16.15;9.02;;;13.70;99.90;;;;;;5111092;28;20400;-69
2023/04/21 08:28:55;;;;;;;16.58;9.00;;;13.80;99.90;;;;;;5090006;28;20036;-69
2023/04/21 08:31:21;;;;;;;20.30;9.13;;;14.00;99.90;;;;;;5077850;28;20125;-69
2023/04/21 08:33:46;;;;;;;19.58;8.75;;;14.10;99.90;;;;;;5093604;28;20032;-69
2023/04/21 08:36:12;;;;;;;16.00;9.50;;;14.20;99.90;;;;;;5092763;28;20144;-69
2023/04/21 08:38:38;;;;;;;14.63;9.27;;;14.20;99.90;;;;;;5100625;28;20043;-69
2023/04/21 08:41:04;;;;;;;17.10;8.45;;;14.10;99.90;;;;;;5112742;28;20053;-69
2023/04/21 08:43:30;;;;;;;17.45;8.60;;;14.10;99.90;;;;;;5094997;28;20122;-69
2023/04/21 08:45:56;;;;;;;20.25;9.70;;;14.20;99.90;;;;;;5111360;28;20405;-69
2023/04/21 08:48:23;;;;;;;13.85;9.05;;;14.10;99.90;;;;;;5112985;28;20032;-69
2023/04/21 08:50:50;;;;;;;17.63;8.32;;;14.10;99.90;;;;;;5096577;28;20098;-69
2023/04/21 08:53:16;;;;;;;19.65;9.85;;;14.30;99.90;;;;;;5110936;28;20503;-69
2023/04/21 08:55:42;;;;;;;15.40;10.18;;;14.40;99.90;;;;;;5094918;28;20055;-70
2023/04/21 08:58:08;;;;;;;14.10;9.05;;;14.50;99.90;;;;;;5101098;28;20040;-70
2023/04/21 09:00:35;;;;;;;18.42;8.40;;;14.70;99.90;;;;;;5108019;28;20122;-69
2023/04/21 09:03:02;;;;;;;16.33;9.18;;;14.70;99.90;;;;;;5112621;28;20088;-70
2023/04/21 09:05:30;;;;;;;18.65;9.75;;;14.80;99.90;;;;;;5095272;28;20108;-69
2023/04/21 09:08:12;;;;;;;16.65;9.10;;;14.70;99.90;;;;;;5092383;28;20079;-70
2023/04/21 09:10:53;;;;;;;19.52;9.98;;;14.90;99.90;;;;;;5092368;28;20036;-70
2023/04/21 09:13:19;;;;;;;18.77;9.52;;;14.90;99.90;;;;;;5093381;28;20031;-70
2023/04/21 09:15:51;;;;;;;20.80;9.15;;;14.90;99.90;;;;;;5095199;28;20040;-69
2023/04/21 09:18:22;;;;;;;13.63;8.73;;;14.90;99.90;;;;;;5091319;28;20047;-69
2023/04/21 09:20:51;;;;;;;13.85;7.75;;;15.00;99.90;;;;;;5095753;28;20467;-69
2023/04/21 09:23:16;;;;;;;12.93;8.57;;;15.00;99.90;;;;;;5108313;28;20047;-70
2023/04/21 09:25:44;;;;;;;14.15;8.68;;;14.90;99.90;;;;;;5112468;28;20032;-69
2023/04/21 09:28:11;;;;;;;16.63;9.18;;;15.00;99.90;;;;;;5095310;28;20115;-69
2023/04/21 09:30:39;;;;;;;18.25;9.75;;;15.10;99.90;;;;;;5091505;28;20107;-69
2023/04/21 09:33:04;;;;;;;15.90;8.25;;;15.10;99.90;;;;;;5104106;28;20047;-69
2023/04/21 09:35:40;;;;;;;14.90;8.77;;;15.30;99.90;;;;;;5093959;28;20035;-69
2023/04/21 09:38:10;;;;;;;16.23;8.40;;;15.50;99.90;;;;;;5085336;28;20122;-69
2023/04/21 09:40:35;;;;;;;15.27;9.43;;;15.60;99.90;;;;;;5086062;28;20125;-69
2023/04/21 09:43:01;;;;;;;14.43;8.55;;;15.60;99.90;;;;;;5099550;28;20110;-69
2023/04/21 09:45:28;;;;;;;14.27;8.70;;;15.60;99.90;;;;;;5104217;28;20047;-69
2023/04/21 09:48:00;;;;;;;19.05;9.15;;;15.70;99.90;;;;;;5092171;28;20051;-69
2023/04/21 09:50:27;;;;;;;15.05;8.68;;;15.70;99.90;;;;;;5091824;28;20175;-69
2023/04/21 09:52:55;;;;;;;16.92;9.32;;;15.70;99.90;;;;;;5077536;28;20036;-69
2023/04/21 09:55:28;;;;;;;16.08;9.00;;;15.80;99.90;;;;;;5090126;28;20047;-69
2023/04/21 09:57:59;;;;;;;14.23;9.35;;;15.90;99.90;;;;;;5082776;28;20391;-69
2023/04/21 10:00:27;;;;;;;19.80;9.40;;;16.00;99.90;;;;;;5100983;28;20406;-69
2023/04/21 10:02:54;;;;;;;17.65;9.23;;;16.10;99.90;;;;;;5095021;28;20124;-69
2023/04/21 10:05:19;;;;;;;17.65;9.48;;;16.20;99.90;;;;;;5095796;28;20044;-69
2023/04/21 10:07:49;;;;;;;17.90;9.13;;;16.30;99.90;;;;;;5111023;28;20039;-69
2023/04/21 10:10:32;;;;;;;14.80;8.13;;;16.40;99.90;;;;;;5109646;28;20119;-69
2023/04/21 10:12:58;;;;;;;17.63;9.45;;;16.70;99.90;;;;;;5111990;28;20042;-69
2023/04/21 10:15:31;;;;;;;17.75;8.95;;;16.80;99.90;;;;;;5083959;28;20139;-69
2023/04/21 10:18:17;;;;;;;15.93;8.90;;;16.90;99.90;;;;;;5100621;28;20091;-69
2023/04/21 10:21:06;;;;;;;16.00;9.32;;;16.90;99.90;;;;;;5111867;28;20047;-69
2023/04/21 10:23:37;;;;;;;14.80;8.75;;;16.90;99.90;;;;;;5093380;28;20479;-69
2023/04/21 10:26:09;;;;;;;15.02;8.82;;;16.90;99.90;;;;;;5112647;28;20044;-69
2023/04/21 10:28:59;;;;;;;14.82;8.95;;;16.90;99.90;;;;;;5098752;28;20468;-69
2023/04/21 10:31:28;;;;;;;16.48;8.43;;;16.80;99.90;;;;;;5105809;28;20047;-69
2023/04/21 10:34:10;;;;;;;17.23;9.40;;;16.80;99.90;;;;;;5098232;28;20111;-69
2023/04/21 10:36:47;;;;;;;12.60;8.32;;;16.80;99.90;;;;;;5095126;28;20047;-69
2023/04/21 10:39:37;;;;;;;14.20;8.68;;;16.80;99.90;;;;;;5100645;28;20052;-69
2023/04/21 10:42:14;;;;;;;14.15;8.90;;;17.00;99.90;;;;;;5115144;27;20127;-69
2023/04/21 10:44:55;;;;;;;16.73;8.40;;;17.30;99.90;;;;;;5094814;28;20046;-69
2023/04/21 10:47:43;;;;;;;18.00;8.48;;;17.50;99.90;;;;;;5113645;28;20403;-69
2023/04/21 10:50:28;;;;;;;13.82;7.50;;;17.70;99.90;;;;;;5091420;28;20035;-69
2023/04/21 10:53:11;;;;;;;15.60;8.38;;;17.80;99.90;;;;;;5100250;28;20447;-69
2023/04/21 10:55:37;;;;;;;15.65;7.50;;;17.90;99.90;;;;;;5109864;28;20135;-69
2023/04/21 10:58:07;;;;;;;12.63;7.95;;;17.90;99.90;;;;;;5096952;28;20507;-69
2023/04/21 11:00:34;;;;;;;12.68;7.93;;;17.90;99.90;;;;;;5114702;28;20047;-69
2023/04/21 11:03:04;;;;;;;12.88;7.45;;;18.00;99.90;;;;;;5096027;28;20043;-69
2023/04/21 11:05:39;;;;;;;17.13;8.30;;;18.20;99.90;;;;;;5101800;28;20040;-69
2023/04/21 11:08:04;;;;;;;12.30;7.25;;;18.30;99.90;;;;;;5106766;28;20478;-69
2023/04/21 11:10:49;;;;;;;13.32;7.35;;;18.40;99.90;;;;;;5125962;27;20059;-72
2023/04/21 11:13:15;;;;;;;15.02;8.10;;;18.40;99.90;;;;;;5097145;28;20043;-71
2023/04/21 11:15:40;;;;;;;11.38;7.30;;;18.50;99.90;;;;;;5094479;28;20577;-71
2023/04/21 11:18:08;;;;;;;12.57;6.32;;;18.70;99.90;;;;;;5097380;28;20059;-70
2023/04/21 11:20:39;;;;;;;12.57;6.90;;;18.70;99.90;;;;;;5094093;28;20554;-69
2023/04/21 11:23:04;;;;;;;16.30;6.97;;;18.70;98.60;;;;;;5081717;28;20115;-70
2023/04/21 11:25:30;;;;;;;9.68;5.88;;;18.60;99.90;;;;;;5106124;28;20177;-69
2023/04/21 11:27:58;;;;;;;10.80;6.28;;;18.60;98.20;;;;;;5110838;28;20042;-69
2023/04/21 11:30:34;;;;;;;12.25;5.90;;;18.70;98.70;;;;;;5107601;28;20076;-69
2023/04/21 11:33:00;;;;;;;11.65;6.03;;;18.80;99.40;;;;;;5098872;28;20165;-69
2023/04/21 11:35:26;;;;;;;11.23;5.63;;;18.90;99.90;;;;;;5102506;28;20495;-69
2023/04/21 11:37:51;;;;;;;12.65;5.22;;;18.80;98.00;;;;;;5123088;27;20240;-69
2023/04/21 11:40:18;;;;;;;11.85;5.10;;;18.90;97.10;;;;;;5112683;28;20058;-69
2023/04/21 11:42:43;;;;;;;8.70;4.57;;;18.90;95.20;;;;;;5113149;28;20063;-69
2023/04/21 11:45:18;;;;;;;8.75;3.45;;;19.00;95.70;;;;;;5114085;28;20572;-69
2023/04/21 11:47:44;;;;;;;13.35;4.70;;;19.00;95.20;;;;;;5082759;28;20133;-68
2023/04/21 11:50:10;;;;;;;8.35;4.32;;;19.00;94.00;;;;;;5100487;28;20521;-69
2023/04/21 11:52:40;;;;;;;9.23;4.13;;;19.00;92.20;;;;;;5111953;28;20123;-69
2023/04/21 11:55:19;;;;;;;13.35;5.07;;;19.00;93.40;;;;;;5112936;28;20071;-68
2023/04/21 11:57:45;;;;;;;11.95;4.53;;;18.70;91.80;;;;;;5113881;28;20048;-69
2023/04/21 12:00:14;;;;;;;9.38;4.28;;;18.70;92.40;;;;;;5113807;28;20036;-69
2023/04/21 12:02:41;;;;;;;11.88;4.55;;;18.50;93.00;;;;;;5110368;28;20032;-68
2023/04/21 12:05:09;;;;;;;10.45;4.43;;;18.40;94.70;;;;;;5112393;28;20042;-69
2023/04/21 12:07:37;;;;;;;10.98;4.88;;;18.40;94.80;;;;;;5096743;28;20032;-69
2023/04/21 12:10:10;;;;;;;14.23;5.00;;;18.40;95.50;;;;;;5107413;28;20553;-69
2023/04/21 12:12:37;;;;;;;11.30;4.47;;;18.50;94.50;;;;;;5104085;28;20035;-69
2023/04/21 12:15:07;;;;;;;11.70;4.38;;;18.60;94.60;;;;;;5096440;28;20039;-69
2023/04/21 12:17:43;;;;;;;13.77;5.15;;;18.70;94.60;;;;;;5093004;28;20045;-68
2023/04/21 12:20:09;;;;;;;13.05;5.22;;;18.60;94.40;;;;;;5107813;28;20149;-69
2023/04/21 12:22:34;;;;;;;13.65;4.60;;;18.60;95.80;;;;;;5106950;27;20035;-69
2023/04/21 12:25:00;;;;;;;11.20;5.38;;;18.70;95.00;;;;;;5113495;28;20035;-69
2023/04/21 12:27:27;;;;;;;17.70;5.88;;;18.90;91.70;;;;;;5076218;28;20039;-69
2023/04/21 12:29:52;;;;;;;10.73;5.10;;;18.90;93.60;;;;;;5110173;28;20067;-69
2023/04/21 12:32:19;;;;;;;11.60;5.25;;;18.80;92.90;;;;;;5092920;28;20036;-69
2023/04/21 12:34:44;;;;;;;9.40;4.70;;;18.80;92.60;;;;;;5109755;28;20519;-69
2023/04/21 12:37:10;;;;;;;12.23;4.63;;;18.80;93.10;;;;;;5092972;28;20040;-69
2023/04/21 12:39:36;;;;;;;11.25;4.68;;;18.80;93.70;;;;;;5133906;27;20096;-74